createdAt,value
2019-03-27T00:00:09.861Z,99774.73
2019-03-27T00:02:38.143Z,99777.05
2019-03-27T00:05:06.405Z,99777.05
2019-03-27T00:07:34.688Z,99770.84
2019-03-27T00:10:04.788Z,99771.84
2019-03-27T00:12:33.634Z,99767.88
2019-03-27T00:15:11.998Z,99776.73
2019-03-27T00:17:31.898Z,99781.62
2019-03-27T00:20:00.377Z,99779.67
2019-03-27T00:22:28.614Z,99778.02
2019-03-27T00:24:56.867Z,99777.98
2019-03-27T00:27:25.146Z,99771.39
2019-03-27T00:29:53.397Z,99775.29
2019-03-27T00:32:22.247Z,99777.73
2019-03-27T00:34:50.504Z,99782.92
2019-03-27T00:37:19.555Z,99780.22
2019-03-27T00:39:48.646Z,99786.22
2019-03-27T00:42:16.927Z,99779.84
2019-03-27T00:44:45.181Z,99776.30
2019-03-27T00:47:13.463Z,99778.11
2019-03-27T00:49:41.717Z,99780.12
2019-03-27T00:52:09.994Z,99784.15
2019-03-27T00:54:38.816Z,99782.57
2019-03-27T00:57:07.667Z,99780.34
2019-03-27T00:59:35.923Z,99776.00
2019-03-27T01:02:04.975Z,99775.53
2019-03-27T01:04:33.231Z,99775.59
2019-03-27T01:07:01.512Z,99774.29
2019-03-27T01:09:29.790Z,99768.41
2019-03-27T01:11:58.052Z,99768.14
2019-03-27T01:14:26.305Z,99771.23
2019-03-27T01:16:54.597Z,99773.60
2019-03-27T01:19:23.615Z,99768.47
2019-03-27T01:21:51.888Z,99771.94
2019-03-27T01:24:20.714Z,99781.57
2019-03-27T01:26:49.758Z,99771.46
2019-03-27T01:29:18.009Z,99773.60
2019-03-27T01:31:46.286Z,99769.75
2019-03-27T01:34:15.115Z,99767.03
2019-03-27T01:36:43.389Z,99768.23
2019-03-27T01:39:11.651Z,99763.80
2019-03-27T01:41:39.907Z,99767.62
2019-03-27T01:44:08.186Z,99761.77
2019-03-27T01:46:36.441Z,99764.20
2019-03-27T01:49:04.717Z,99774.33
2019-03-27T01:51:32.969Z,99771.39
2019-03-27T01:54:02.019Z,99779.82
2019-03-27T01:56:30.373Z,99774.05
2019-03-27T01:58:58.633Z,99773.31
2019-03-27T02:01:26.887Z,99776.10
2019-03-27T02:03:55.172Z,99780.37
2019-03-27T02:06:23.430Z,99775.87
2019-03-27T02:08:51.712Z,99770.01
2019-03-27T02:11:19.962Z,99770.75
2019-03-27T02:13:48.247Z,99772.44
2019-03-27T02:16:16.502Z,99776.34
2019-03-27T02:18:44.777Z,99780.03
2019-03-27T02:21:13.035Z,99777.46
2019-03-27T02:23:41.315Z,99779.39
2019-03-27T02:26:09.570Z,99783.70
2019-03-27T02:28:37.846Z,99790.14
2019-03-27T02:31:06.097Z,99788.30
2019-03-27T02:33:34.710Z,99791.09
2019-03-27T02:36:02.982Z,99787.32
2019-03-27T02:38:31.238Z,99779.75
2019-03-27T02:40:59.564Z,99778.63
2019-03-27T02:43:27.844Z,99773.52
2019-03-27T02:45:56.101Z,99779.48
2019-03-27T02:48:24.380Z,99784.16
2019-03-27T02:50:52.635Z,99789.76
2019-03-27T02:53:20.920Z,99787.92
2019-03-27T02:55:49.177Z,99786.66
2019-03-27T02:58:18.796Z,99785.48
2019-03-27T03:00:47.740Z,99786.38
2019-03-27T03:03:16.004Z,99794.28
2019-03-27T03:05:44.261Z,99788.91
2019-03-27T03:08:12.536Z,99789.30
2019-03-27T03:10:45.066Z,99790.09
2019-03-27T03:13:10.792Z,99787.98
2019-03-27T03:15:39.046Z,99792.55
2019-03-27T03:18:07.327Z,99790.82
2019-03-27T03:20:35.575Z,99791.44
2019-03-27T03:23:03.858Z,99791.92
2019-03-27T03:25:32.110Z,99792.06
2019-03-27T03:28:00.395Z,99795.34
2019-03-27T03:30:28.652Z,99794.47
2019-03-27T03:32:57.485Z,99803.28
2019-03-27T03:35:25.750Z,99792.16
2019-03-27T03:37:54.006Z,99803.28
2019-03-27T03:40:22.282Z,99799.86
2019-03-27T03:42:50.542Z,99808.77
2019-03-27T03:45:18.827Z,99800.08
2019-03-27T03:47:47.068Z,99802.27
2019-03-27T03:50:33.653Z,99797.26
2019-03-27T03:53:01.910Z,99803.11
2019-03-27T03:55:30.970Z,99810.69
2019-03-27T03:57:59.790Z,99805.67
2019-03-27T04:00:28.066Z,99803.23
2019-03-27T04:02:56.392Z,99801.19
2019-03-27T04:05:24.673Z,99796.66
2019-03-27T04:07:52.945Z,99794.36
2019-03-27T04:10:21.233Z,99800.21
2019-03-27T04:12:49.491Z,99797.43
2019-03-27T04:15:17.758Z,99802.55
2019-03-27T04:17:46.012Z,99801.95
2019-03-27T04:20:14.866Z,99802.16
2019-03-27T04:22:43.118Z,99799.97
2019-03-27T04:25:12.165Z,99804.27
2019-03-27T04:27:40.667Z,99805.52
2019-03-27T04:30:09.351Z,99807.45
2019-03-27T04:32:37.600Z,99807.45
2019-03-27T04:35:06.625Z,99813.95
2019-03-27T04:37:34.879Z,99821.36
2019-03-27T04:40:04.813Z,99820.77
2019-03-27T04:42:33.718Z,99813.20
2019-03-27T04:45:02.076Z,99810.52
2019-03-27T04:47:32.465Z,99800.52
2019-03-27T04:50:00.492Z,99806.27
2019-03-27T04:52:28.758Z,99802.72
2019-03-27T04:54:57.043Z,99809.17
2019-03-27T04:57:25.299Z,99814.31
2019-03-27T04:59:53.573Z,99812.83
2019-03-27T05:02:21.826Z,99810.78
2019-03-27T05:04:50.374Z,99807.09
2019-03-27T05:07:19.403Z,99811.48
2019-03-27T05:09:48.248Z,99826.52
2019-03-27T05:12:16.507Z,99831.52
2019-03-27T05:14:44.786Z,99828.56
2019-03-27T05:17:13.611Z,99825.65
2019-03-27T05:19:42.663Z,99824.05
2019-03-27T05:22:10.919Z,99837.25
2019-03-27T05:24:39.200Z,99830.27
2019-03-27T05:27:07.463Z,99828.44
2019-03-27T05:29:35.746Z,99832.58
2019-03-27T05:32:04.776Z,99837.59
2019-03-27T05:34:33.055Z,99844.41
2019-03-27T05:37:01.319Z,99851.38
2019-03-27T05:39:29.597Z,99847.95
2019-03-27T05:41:58.627Z,99852.83
2019-03-27T05:44:27.686Z,99849.66
2019-03-27T05:46:56.011Z,99849.77
2019-03-27T05:49:24.372Z,99850.01
2019-03-27T05:51:52.634Z,99850.98
2019-03-27T05:54:20.904Z,99848.67
2019-03-27T05:56:49.163Z,99851.84
2019-03-27T05:59:17.442Z,99866.98
2019-03-27T06:01:46.263Z,99866.61
2019-03-27T06:04:14.554Z,99869.03
2019-03-27T06:06:42.825Z,99868.80
2019-03-27T06:09:11.102Z,99872.44
2019-03-27T06:11:39.358Z,99874.02
2019-03-27T06:14:08.208Z,99892.32
2019-03-27T06:16:36.537Z,99897.45
2019-03-27T06:19:04.790Z,99898.83
2019-03-27T06:21:33.149Z,99900.30
2019-03-27T06:24:01.402Z,99895.88
2019-03-27T06:26:29.680Z,99897.70
2019-03-27T06:28:57.935Z,99901.74
2019-03-27T06:31:26.215Z,99897.34
2019-03-27T06:33:55.322Z,99903.09
2019-03-27T06:36:23.599Z,99904.55
2019-03-27T06:38:51.860Z,99898.83
2019-03-27T06:41:20.142Z,99898.92
2019-03-27T06:43:48.394Z,99901.84
2019-03-27T06:46:17.009Z,99911.26
2019-03-27T06:48:45.259Z,99911.70
2019-03-27T06:51:13.535Z,99921.61
2019-03-27T06:53:41.791Z,99921.30
2019-03-27T06:56:10.218Z,99917.25
2019-03-27T06:58:38.478Z,99905.86
2019-03-27T07:01:06.761Z,99900.00
2019-03-27T07:03:35.019Z,99898.65
2019-03-27T07:06:03.859Z,99902.16
2019-03-27T07:08:32.109Z,99897.77
2019-03-27T07:11:00.392Z,99900.55
2019-03-27T07:13:28.657Z,99908.98
2019-03-27T07:15:56.930Z,99907.77
2019-03-27T07:18:25.194Z,99909.95
2019-03-27T07:20:53.472Z,99904.64
2019-03-27T07:23:21.725Z,99912.11
2019-03-27T07:25:51.342Z,99908.44
2019-03-27T07:28:19.598Z,99909.92
2019-03-27T07:30:47.879Z,99907.22
2019-03-27T07:33:16.134Z,99916.36
2019-03-27T07:35:44.448Z,99913.16
2019-03-27T07:38:13.238Z,99916.80
2019-03-27T07:40:41.515Z,99909.44
2019-03-27T07:43:09.774Z,99913.69
2019-03-27T07:45:38.051Z,99922.83
2019-03-27T07:48:07.154Z,99919.56
2019-03-27T07:50:35.434Z,99932.53
2019-03-27T07:53:04.803Z,99940.37
2019-03-27T07:55:33.074Z,99944.62
2019-03-27T07:58:01.904Z,99944.83
2019-03-27T08:00:30.747Z,99947.66
2019-03-27T08:02:59.010Z,99954.52
2019-03-27T08:05:27.297Z,99962.45
2019-03-27T08:07:55.557Z,99957.20
2019-03-27T08:10:23.830Z,99960.88
2019-03-27T08:12:52.862Z,99956.30
2019-03-27T08:15:21.138Z,99959.31
2019-03-27T08:17:49.731Z,99964.05
2019-03-27T08:20:18.012Z,99957.58
2019-03-27T08:22:46.265Z,99961.48
2019-03-27T08:25:14.863Z,99963.98
2019-03-27T08:27:43.144Z,99966.10
2019-03-27T08:30:14.900Z,99968.46
2019-03-27T08:32:43.177Z,99965.30
2019-03-27T08:35:11.507Z,99975.55
2019-03-27T08:37:39.781Z,99967.50
2019-03-27T08:40:09.680Z,99961.69
2019-03-27T08:42:38.552Z,99964.06
2019-03-27T08:45:07.619Z,99967.38
2019-03-27T08:47:35.898Z,99963.50
2019-03-27T08:50:07.350Z,99965.49
2019-03-27T08:52:36.448Z,99968.09
2019-03-27T08:55:06.406Z,99978.72
2019-03-27T08:57:34.690Z,99984.88
2019-03-27T09:00:02.963Z,99988.26
2019-03-27T09:02:31.227Z,99983.52
2019-03-27T09:04:59.483Z,99983.94
2019-03-27T09:07:27.761Z,99982.56
2019-03-27T09:09:56.018Z,99985.36
2019-03-27T09:12:24.298Z,99981.84
2019-03-27T09:14:52.552Z,99984.26
2019-03-27T09:17:21.607Z,99982.13
2019-03-27T09:19:49.860Z,99980.64
2019-03-27T09:22:18.138Z,99985.38
2019-03-27T09:24:46.393Z,99982.27
2019-03-27T09:27:14.674Z,99987.30
2019-03-27T09:29:42.931Z,99986.95
2019-03-27T09:32:11.778Z,99994.64
2019-03-27T09:34:40.038Z,100002.28
2019-03-27T09:37:08.314Z,99999.05
2019-03-27T09:39:36.574Z,99990.47
2019-03-27T09:42:05.623Z,99998.59
2019-03-27T09:44:33.890Z,100002.09
2019-03-27T09:47:02.171Z,100006.57
2019-03-27T09:49:30.437Z,100009.27
2019-03-27T09:51:58.721Z,100005.92
2019-03-27T09:54:26.981Z,100016.95
2019-03-27T09:56:55.263Z,100008.70
2019-03-27T09:59:23.529Z,100011.33
2019-03-27T10:01:51.811Z,100004.30
2019-03-27T10:04:20.073Z,100010.17
2019-03-27T10:06:48.922Z,100007.28
2019-03-27T10:09:17.180Z,100006.81
2019-03-27T10:11:46.133Z,100008.45
2019-03-27T10:14:14.386Z,100004.55
2019-03-27T10:16:42.674Z,100005.24
2019-03-27T10:19:10.933Z,100008.63
2019-03-27T10:21:39.210Z,100011.56
2019-03-27T10:24:07.473Z,100013.03
2019-03-27T10:26:36.503Z,100011.14
2019-03-27T10:29:05.128Z,100019.59
2019-03-27T10:31:33.462Z,100017.41
2019-03-27T10:34:01.744Z,100017.77
2019-03-27T10:36:30.002Z,100018.87
2019-03-27T10:38:58.294Z,100026.43
2019-03-27T10:41:26.540Z,100030.10
2019-03-27T10:43:55.587Z,100020.43
2019-03-27T10:46:23.838Z,100024.80
2019-03-27T10:48:53.152Z,100027.91
2019-03-27T10:51:21.553Z,100018.89
2019-03-27T10:53:49.832Z,100020.69
2019-03-27T10:56:18.086Z,100020.48
2019-03-27T10:58:46.366Z,100027.05
2019-03-27T11:01:14.622Z,100023.77
2019-03-27T11:03:42.899Z,100017.84
2019-03-27T11:06:11.154Z,100020.61
2019-03-27T11:08:39.437Z,100019.38
2019-03-27T11:11:07.689Z,100019.77
2019-03-27T11:13:35.966Z,100015.75
2019-03-27T11:16:04.989Z,100013.66
2019-03-27T11:18:33.267Z,100026.08
2019-03-27T11:21:01.524Z,100023.36
2019-03-27T11:23:29.803Z,100016.94
2019-03-27T11:25:58.056Z,100016.27
2019-03-27T11:28:26.342Z,100023.45
2019-03-27T11:30:54.600Z,100022.23
2019-03-27T11:33:22.881Z,100019.52
2019-03-27T11:35:51.842Z,100016.69
2019-03-27T11:38:20.296Z,100012.94
2019-03-27T11:40:48.551Z,100012.86
2019-03-27T11:43:16.825Z,100008.64
2019-03-27T11:45:45.083Z,100003.92
2019-03-27T11:48:13.361Z,100006.66
2019-03-27T11:50:45.286Z,100008.30
2019-03-27T11:53:11.971Z,100003.78
2019-03-27T11:55:40.229Z,100006.11
2019-03-27T11:58:08.516Z,100010.05
2019-03-27T12:00:37.428Z,100002.37
2019-03-27T12:03:05.703Z,100011.73
2019-03-27T12:05:33.960Z,100009.03
2019-03-27T12:08:03.018Z,100006.69
2019-03-27T12:10:31.271Z,100009.39
2019-03-27T12:13:00.112Z,100012.08
2019-03-27T12:15:39.515Z,100004.95
2019-03-27T12:18:08.435Z,100005.73
2019-03-27T12:20:36.681Z,100004.45
2019-03-27T12:23:05.807Z,100006.33
2019-03-27T12:25:34.060Z,100017.41
2019-03-27T12:28:02.315Z,100013.69
2019-03-27T12:30:31.362Z,100009.20
2019-03-27T12:32:59.889Z,100009.33
2019-03-27T12:35:28.738Z,100006.11
2019-03-27T12:37:56.995Z,100007.70
2019-03-27T12:40:25.268Z,100009.72
2019-03-27T12:42:53.522Z,100003.63
2019-03-27T12:45:21.796Z,99994.32
2019-03-27T12:47:50.050Z,99993.48
2019-03-27T12:50:18.330Z,99996.61
2019-03-27T12:52:47.451Z,100000.77
2019-03-27T12:55:16.496Z,99997.64
2019-03-27T12:57:44.749Z,99994.56
2019-03-27T13:00:13.026Z,99996.09
2019-03-27T13:02:41.851Z,100000.36
2019-03-27T13:05:10.132Z,99995.41
2019-03-27T13:07:49.456Z,100001.16
2019-03-27T13:10:08.953Z,99991.19
2019-03-27T13:12:37.200Z,99998.04
2019-03-27T13:15:07.107Z,99987.52
2019-03-27T13:17:35.357Z,99995.23
2019-03-27T13:20:04.878Z,99990.95
2019-03-27T13:22:33.140Z,100000.17
2019-03-27T13:25:01.429Z,100001.05
2019-03-27T13:27:30.254Z,100006.07
2019-03-27T13:29:58.535Z,99999.20
2019-03-27T13:32:26.785Z,99998.41
2019-03-27T13:34:55.062Z,100007.55
2019-03-27T13:37:24.658Z,100005.00
2019-03-27T13:39:52.937Z,100011.13
2019-03-27T13:42:21.191Z,100005.35
2019-03-27T13:44:49.471Z,100004.50
2019-03-27T13:47:18.499Z,100006.59
2019-03-27T13:49:46.773Z,100006.22
2019-03-27T13:52:15.323Z,100007.47
2019-03-27T13:54:43.603Z,100009.00
2019-03-27T13:57:11.860Z,100003.48
2019-03-27T13:59:40.138Z,100006.30
2019-03-27T14:02:08.394Z,100006.08
2019-03-27T14:04:36.668Z,100004.33
2019-03-27T14:07:04.994Z,100000.88
2019-03-27T14:09:33.833Z,99994.53
2019-03-27T14:12:02.093Z,99998.08
2019-03-27T14:14:31.135Z,99991.58
2019-03-27T14:16:59.391Z,99988.42
2019-03-27T14:19:27.667Z,99988.79
2019-03-27T14:21:55.940Z,99977.52
2019-03-27T14:24:24.209Z,99983.88
2019-03-27T14:26:53.236Z,99983.50
2019-03-27T14:29:21.505Z,99985.88
2019-03-27T14:31:49.898Z,99980.89
2019-03-27T14:34:18.179Z,99982.09
2019-03-27T14:36:47.220Z,99974.59
2019-03-27T14:39:15.479Z,99979.95
2019-03-27T14:41:43.739Z,99978.30
2019-03-27T14:44:12.069Z,99978.39
2019-03-27T14:46:41.116Z,99991.08
2019-03-27T14:49:09.371Z,99985.14
2019-03-27T14:51:37.640Z,99980.00
2019-03-27T14:54:05.898Z,99974.57
2019-03-27T14:56:34.168Z,99981.68
2019-03-27T14:59:02.427Z,99994.34
2019-03-27T15:01:30.706Z,99977.09
2019-03-27T15:03:59.531Z,99967.88
2019-03-27T15:06:27.822Z,99966.22
2019-03-27T15:08:56.645Z,99972.66
2019-03-27T15:11:24.927Z,99976.22
2019-03-27T15:13:53.187Z,99972.86
2019-03-27T15:16:22.234Z,99975.38
2019-03-27T15:18:52.568Z,99979.38
2019-03-27T15:21:20.552Z,99980.69
2019-03-27T15:23:49.162Z,99976.09
2019-03-27T15:26:17.438Z,99965.90
2019-03-27T15:28:45.696Z,99971.58
2019-03-27T15:31:20.287Z,99961.66
2019-03-27T15:33:43.945Z,99970.84
2019-03-27T15:36:12.214Z,99965.61
2019-03-27T15:38:40.468Z,99961.73
2019-03-27T15:41:08.741Z,99959.34
2019-03-27T15:43:36.994Z,99962.55
2019-03-27T15:46:05.269Z,99961.70
2019-03-27T15:48:33.522Z,99965.35
2019-03-27T15:51:01.795Z,99968.20
2019-03-27T15:53:30.041Z,99967.94
2019-03-27T15:55:58.312Z,99966.17
2019-03-27T15:58:26.581Z,99963.03
2019-03-27T16:00:54.838Z,99963.02
2019-03-27T16:03:23.092Z,99962.83
2019-03-27T16:05:51.357Z,99961.98
2019-03-27T16:08:19.895Z,99956.64
2019-03-27T16:10:48.164Z,99959.33
2019-03-27T16:13:16.411Z,99964.60
2019-03-27T16:15:44.681Z,99970.05
2019-03-27T16:18:16.294Z,99967.71
2019-03-27T16:20:43.740Z,99974.02
2019-03-27T16:23:12.021Z,99971.38
2019-03-27T16:25:40.354Z,99972.68
2019-03-27T16:28:09.196Z,99971.52
2019-03-27T16:30:37.449Z,99974.11
2019-03-27T16:33:05.715Z,99976.83
2019-03-27T16:35:33.965Z,99977.77
2019-03-27T16:38:02.809Z,99973.94
2019-03-27T16:40:44.137Z,99975.80
2019-03-27T16:43:12.471Z,99983.13
2019-03-27T16:45:40.726Z,99979.50
2019-03-27T16:48:08.997Z,99980.72
2019-03-27T16:50:37.253Z,99977.15
2019-03-27T16:53:05.536Z,99976.50
2019-03-27T16:55:34.162Z,99981.00
2019-03-27T16:58:02.428Z,99979.84
2019-03-27T17:00:31.027Z,99987.05
2019-03-27T17:02:59.304Z,99985.05
2019-03-27T17:05:27.557Z,99984.27
2019-03-27T17:07:55.838Z,99991.08
2019-03-27T17:10:24.085Z,99991.08
2019-03-27T17:12:52.809Z,100000.98
2019-03-27T17:15:24.229Z,100000.56
2019-03-27T17:17:52.863Z,100003.95
2019-03-27T17:20:21.231Z,100004.84
2019-03-27T17:22:50.268Z,99997.31
2019-03-27T17:25:18.522Z,100001.84
2019-03-27T17:27:46.797Z,100004.80
2019-03-27T17:30:15.049Z,100009.08
2019-03-27T17:32:43.328Z,100007.23
2019-03-27T17:35:13.200Z,100014.14
2019-03-27T17:37:41.477Z,100013.92
2019-03-27T17:40:09.740Z,100025.54
2019-03-27T17:42:38.013Z,100023.08
2019-03-27T17:45:07.736Z,100028.45
2019-03-27T17:47:36.040Z,100025.78
2019-03-27T17:50:05.027Z,100031.08
2019-03-27T17:52:33.877Z,100032.23
2019-03-27T17:55:02.127Z,100032.01
2019-03-27T17:57:30.402Z,100031.88
2019-03-27T17:59:58.666Z,100030.11
2019-03-27T18:02:27.792Z,100035.57
2019-03-27T18:04:56.041Z,100035.57
2019-03-27T18:07:24.891Z,100037.83
2019-03-27T18:09:53.143Z,100037.83
2019-03-27T18:12:21.890Z,100041.94
2019-03-27T18:14:50.708Z,100043.55
2019-03-27T18:17:23.274Z,100042.75
2019-03-27T18:19:51.779Z,100036.02
2019-03-27T18:22:20.059Z,100037.28
2019-03-27T18:24:48.310Z,100035.84
2019-03-27T18:27:16.586Z,100044.83
2019-03-27T18:29:45.610Z,100044.47
2019-03-27T18:32:14.535Z,100040.00
2019-03-27T18:34:42.835Z,100039.15
2019-03-27T18:37:11.087Z,100032.28
2019-03-27T18:39:39.356Z,100037.52
2019-03-27T18:42:07.605Z,100040.75
2019-03-27T18:44:35.876Z,100033.50
2019-03-27T18:47:04.903Z,100041.34
2019-03-27T18:49:33.180Z,100044.62
2019-03-27T18:52:01.428Z,100041.86
2019-03-27T18:54:29.702Z,100044.78
2019-03-27T18:56:58.298Z,100045.47
2019-03-27T18:59:26.574Z,100044.80
2019-03-27T19:01:55.160Z,100048.30
2019-03-27T19:04:23.435Z,100047.64
2019-03-27T19:06:51.698Z,100047.80
2019-03-27T19:09:19.980Z,100047.88
2019-03-27T19:11:48.231Z,100045.25
2019-03-27T19:14:16.508Z,100046.80
2019-03-27T19:16:44.768Z,100042.95
2019-03-27T19:19:13.617Z,100047.61
2019-03-27T19:21:41.875Z,100052.51
2019-03-27T19:24:16.149Z,100048.36
2019-03-27T19:26:40.140Z,100056.48
2019-03-27T19:29:08.422Z,100056.20
2019-03-27T19:31:36.677Z,100055.27
2019-03-27T19:34:04.964Z,100060.19
2019-03-27T19:36:33.991Z,100058.05
2019-03-27T19:39:02.268Z,100061.75
2019-03-27T19:41:30.598Z,100057.63
2019-03-27T19:43:58.874Z,100053.64
2019-03-27T19:46:27.129Z,100060.49
2019-03-27T19:48:55.407Z,100053.44
2019-03-27T19:51:23.662Z,100054.56
2019-03-27T19:53:51.939Z,100053.14
2019-03-27T19:56:20.235Z,100052.08
2019-03-27T19:58:48.512Z,100059.48
2019-03-27T20:01:17.813Z,100058.81
2019-03-27T20:03:46.096Z,100059.48
2019-03-27T20:06:14.355Z,100057.10
2019-03-27T20:08:43.203Z,100055.05
2019-03-27T20:11:11.454Z,100063.02
2019-03-27T20:13:39.734Z,100059.70
2019-03-27T20:16:07.993Z,100059.56
2019-03-27T20:18:36.270Z,100060.68
2019-03-27T20:21:04.530Z,100059.33
2019-03-27T20:23:32.811Z,100057.91
2019-03-27T20:26:01.215Z,100060.75
2019-03-27T20:28:29.519Z,100060.55
2019-03-27T20:30:57.778Z,100065.16
2019-03-27T20:33:26.701Z,100060.42
2019-03-27T20:35:54.980Z,100072.70
2019-03-27T20:38:23.248Z,100073.20
2019-03-27T20:40:51.519Z,100072.79
2019-03-27T20:43:20.546Z,100080.34
2019-03-27T20:45:48.834Z,100079.41
2019-03-27T20:48:17.090Z,100078.48
2019-03-27T20:50:45.376Z,100080.59
2019-03-27T20:53:13.894Z,100082.88
2019-03-27T20:55:42.171Z,100077.70
2019-03-27T20:58:10.755Z,100078.26
2019-03-27T21:00:39.034Z,100083.60
2019-03-27T21:03:07.295Z,100080.83
2019-03-27T21:05:35.629Z,100074.01
2019-03-27T21:08:04.642Z,100078.13
2019-03-27T21:10:32.929Z,100077.20
2019-03-27T21:13:01.756Z,100083.60
2019-03-27T21:15:30.033Z,100080.97
2019-03-27T21:17:58.977Z,100086.01
2019-03-27T21:20:27.246Z,100082.94
2019-03-27T21:22:55.939Z,100086.86
2019-03-27T21:25:24.786Z,100084.59
2019-03-27T21:27:53.046Z,100088.87
2019-03-27T21:30:21.690Z,100095.10
2019-03-27T21:32:49.947Z,100093.06
2019-03-27T21:35:18.230Z,100096.16
2019-03-27T21:37:46.490Z,100090.98
2019-03-27T21:40:14.840Z,100090.00
2019-03-27T21:42:43.111Z,100093.00
2019-03-27T21:45:11.382Z,100097.31
2019-03-27T21:47:39.638Z,100100.80
2019-03-27T21:50:08.553Z,100094.77
2019-03-27T21:52:36.811Z,100100.30
2019-03-27T21:55:21.476Z,100102.31
2019-03-27T21:57:38.329Z,100107.98
2019-03-27T22:00:06.684Z,100108.55
2019-03-27T22:02:34.939Z,100110.56
2019-03-27T22:05:03.216Z,100100.73
2019-03-27T22:07:31.470Z,100108.71
2019-03-27T22:09:59.751Z,100108.98
2019-03-27T22:12:28.573Z,100120.72
2019-03-27T22:14:56.853Z,100119.09
2019-03-27T22:17:25.680Z,100112.11
2019-03-27T22:19:53.961Z,100114.98
2019-03-27T22:22:22.217Z,100117.81
2019-03-27T22:24:50.495Z,100119.79
2019-03-27T22:27:18.750Z,100117.25
2019-03-27T22:29:47.031Z,100115.59
2019-03-27T22:32:15.288Z,100112.78
2019-03-27T22:34:44.426Z,100113.15
2019-03-27T22:37:13.583Z,100113.57
2019-03-27T22:39:42.217Z,100110.80
2019-03-27T22:42:10.483Z,100111.05
2019-03-27T22:44:38.759Z,100121.38
2019-03-27T22:47:07.024Z,100125.91
2019-03-27T22:49:35.383Z,100125.86
2019-03-27T22:52:03.643Z,100128.30
2019-03-27T22:54:31.932Z,100125.97
2019-03-27T22:57:00.195Z,100118.94
2019-03-27T22:59:28.479Z,100129.86
2019-03-27T23:01:56.740Z,100126.83
2019-03-27T23:04:25.026Z,100125.48
2019-03-27T23:06:54.048Z,100124.78
2019-03-27T23:09:22.331Z,100126.13
2019-03-27T23:11:51.161Z,100131.11
2019-03-27T23:14:20.117Z,100131.24
2019-03-27T23:16:48.374Z,100129.23
2019-03-27T23:19:16.632Z,100129.71
2019-03-27T23:21:44.921Z,100131.34
2019-03-27T23:24:13.952Z,100132.52
2019-03-27T23:26:42.240Z,100130.86
2019-03-27T23:29:10.503Z,100132.65
2019-03-27T23:31:38.789Z,100130.10
2019-03-27T23:34:07.052Z,100126.49
2019-03-27T23:36:35.354Z,100132.55
2019-03-27T23:39:03.945Z,100131.89
2019-03-27T23:41:32.224Z,100136.42
2019-03-27T23:44:00.484Z,100135.06
2019-03-27T23:46:28.772Z,100125.48
2019-03-27T23:48:57.030Z,100123.43
2019-03-27T23:51:25.327Z,100124.11
2019-03-27T23:53:54.447Z,100114.55
2019-03-27T23:56:23.302Z,100124.96
2019-03-27T23:58:51.534Z,100126.16
